KMTP

Montauk Airport

Montauk, New York, USA
METAR KMTP 210354Z AUTO 05006KT 20/17 A3016 RMK AO1 SLP214 T02000172 $
Observed Flight Rules
Aug-21 @ 03:54 UTC (17 minutes ago)
Wind
50° at 6 knots
Temperatures Readings
Current 20°C / 68°F
Dewpoint 17°C / 63°F
Humidity 83%
Altimeter 30.16" Hg
Pressure 1021.4 hPa
Elevation 2
METAR KMTP 210354Z AUTO 05006KT 20/17 A3016 RMK AO1 SLP214 T02000172 $
Observed Flight Rules
Aug-21 @ 03:54 UTC
(17 minutes ago)
Wind
50° at 6 knots
Temperature Dewpoint
20°C / 68°F 17°C / 63°F
Humidity Altimeter Pressure
83% 30.16" Hg 1021.4 hPa